sensor_id;sensor_type;location;lat;lon;timestamp;temperature;humidity
67901;DHT22;54700;51.796;10.956;2023-02-01T00:03:33;4.90;72.30
67901;DHT22;54700;51.796;10.956;2023-02-01T00:06:00;4.80;72.50
67901;DHT22;54700;51.796;10.956;2023-02-01T00:08:27;4.80;72.40
67901;DHT22;54700;51.796;10.956;2023-02-01T00:10:58;4.80;72.60
67901;DHT22;54700;51.796;10.956;2023-02-01T00:13:27;4.90;72.80
67901;DHT22;54700;51.796;10.956;2023-02-01T00:16:04;4.80;72.70
67901;DHT22;54700;51.796;10.956;2023-02-01T00:18:36;4.90;72.50
67901;DHT22;54700;51.796;10.956;2023-02-01T00:21:05;4.90;72.70
67901;DHT22;54700;51.796;10.956;2023-02-01T00:23:35;4.90;72.70
67901;DHT22;54700;51.796;10.956;2023-02-01T00:26:03;4.90;72.70
67901;DHT22;54700;51.796;10.956;2023-02-01T00:28:32;4.80;73.20
67901;DHT22;54700;51.796;10.956;2023-02-01T00:30:59;4.80;73.40
67901;DHT22;54700;51.796;10.956;2023-02-01T00:33:27;4.80;74.30
67901;DHT22;54700;51.796;10.956;2023-02-01T00:35:57;4.80;73.80
67901;DHT22;54700;51.796;10.956;2023-02-01T00:38:25;4.80;74.00
67901;DHT22;54700;51.796;10.956;2023-02-01T00:40:52;4.80;74.10
67901;DHT22;54700;51.796;10.956;2023-02-01T00:43:28;4.80;74.00
67901;DHT22;54700;51.796;10.956;2023-02-01T00:45:55;4.80;74.10
67901;DHT22;54700;51.796;10.956;2023-02-01T00:48:22;4.90;74.10
67901;DHT22;54700;51.796;10.956;2023-02-01T00:50:49;4.90;73.60
67901;DHT22;54700;51.796;10.956;2023-02-01T00:53:21;4.80;73.70
67901;DHT22;54700;51.796;10.956;2023-02-01T00:55:48;4.90;74.10
67901;DHT22;54700;51.796;10.956;2023-02-01T00:58:15;4.90;74.20
67901;DHT22;54700;51.796;10.956;2023-02-01T01:00:42;4.90;73.80
67901;DHT22;54700;51.796;10.956;2023-02-01T01:03:09;4.90;73.40
67901;DHT22;54700;51.796;10.956;2023-02-01T01:05:44;4.90;73.80
67901;DHT22;54700;51.796;10.956;2023-02-01T01:08:11;5.00;73.90
67901;DHT22;54700;51.796;10.956;2023-02-01T01:10:39;4.90;74.00
67901;DHT22;54700;51.796;10.956;2023-02-01T01:13:07;4.90;74.20
67901;DHT22;54700;51.796;10.956;2023-02-01T01:15:35;4.80;74.30
67901;DHT22;54700;51.796;10.956;2023-02-01T01:18:03;4.80;74.50
67901;DHT22;54700;51.796;10.956;2023-02-01T01:20:30;4.80;74.50
67901;DHT22;54700;51.796;10.956;2023-02-01T01:22:59;4.80;74.60
67901;DHT22;54700;51.796;10.956;2023-02-01T01:25:26;4.80;74.70
67901;DHT22;54700;51.796;10.956;2023-02-01T01:27:55;4.80;75.00
67901;DHT22;54700;51.796;10.956;2023-02-01T01:30:24;4.80;74.20
67901;DHT22;54700;51.796;10.956;2023-02-01T01:32:53;4.80;74.10
67901;DHT22;54700;51.796;10.956;2023-02-01T01:35:20;4.80;74.00
67901;DHT22;54700;51.796;10.956;2023-02-01T01:37:48;4.80;73.60
67901;DHT22;54700;51.796;10.956;2023-02-01T01:40:15;4.80;73.00
67901;DHT22;54700;51.796;10.956;2023-02-01T01:42:43;4.80;73.20
67901;DHT22;54700;51.796;10.956;2023-02-01T01:45:19;4.80;73.30
67901;DHT22;54700;51.796;10.956;2023-02-01T01:47:52;4.80;73.50
67901;DHT22;54700;51.796;10.956;2023-02-01T01:50:22;4.80;73.10
67901;DHT22;54700;51.796;10.956;2023-02-01T01:52:53;4.90;73.20
67901;DHT22;54700;51.796;10.956;2023-02-01T01:55:24;4.90;73.20
67901;DHT22;54700;51.796;10.956;2023-02-01T01:57:57;4.80;72.80
67901;DHT22;54700;51.796;10.956;2023-02-01T02:00:29;4.80;73.60
67901;DHT22;54700;51.796;10.956;2023-02-01T02:03:00;4.90;73.30
67901;DHT22;54700;51.796;10.956;2023-02-01T02:05:34;4.90;73.50
67901;DHT22;54700;51.796;10.956;2023-02-01T02:08:02;4.90;73.20
67901;DHT22;54700;51.796;10.956;2023-02-01T02:10:29;4.90;73.00
67901;DHT22;54700;51.796;10.956;2023-02-01T02:13:11;4.90;73.20
67901;DHT22;54700;51.796;10.956;2023-02-01T02:15:43;4.90;73.60
67901;DHT22;54700;51.796;10.956;2023-02-01T02:18:20;4.90;73.30
67901;DHT22;54700;51.796;10.956;2023-02-01T02:21:12;4.90;73.60
67901;DHT22;54700;51.796;10.956;2023-02-01T02:23:58;4.80;74.00
67901;DHT22;54700;51.796;10.956;2023-02-01T02:26:47;4.80;74.40
67901;DHT22;54700;51.796;10.956;2023-02-01T02:29:36;4.70;74.50
67901;DHT22;54700;51.796;10.956;2023-02-01T02:32:39;4.70;75.20
67901;DHT22;54700;51.796;10.956;2023-02-01T02:35:23;4.70;75.40
67901;DHT22;54700;51.796;10.956;2023-02-01T02:37:59;4.70;75.40
67901;DHT22;54700;51.796;10.956;2023-02-01T02:40:37;4.70;75.50
67901;DHT22;54700;51.796;10.956;2023-02-01T02:43:15;4.70;74.80
67901;DHT22;54700;51.796;10.956;2023-02-01T02:46:05;4.70;74.90
67901;DHT22;54700;51.796;10.956;2023-02-01T02:48:57;4.70;75.00
67901;DHT22;54700;51.796;10.956;2023-02-01T02:51:32;4.70;74.60
67901;DHT22;54700;51.796;10.956;2023-02-01T02:54:22;4.70;74.80
67901;DHT22;54700;51.796;10.956;2023-02-01T02:57:10;4.70;75.00
67901;DHT22;54700;51.796;10.956;2023-02-01T03:00:03;4.70;75.10
67901;DHT22;54700;51.796;10.956;2023-02-01T03:02:59;4.70;75.00
67901;DHT22;54700;51.796;10.956;2023-02-01T03:05:45;4.60;74.60
67901;DHT22;54700;51.796;10.956;2023-02-01T03:08:18;4.70;74.50
67901;DHT22;54700;51.796;10.956;2023-02-01T03:10:48;4.70;74.60
67901;DHT22;54700;51.796;10.956;2023-02-01T03:13:22;4.70;74.60
67901;DHT22;54700;51.796;10.956;2023-02-01T03:15:58;4.70;74.40
67901;DHT22;54700;51.796;10.956;2023-02-01T03:18:31;4.70;74.70
67901;DHT22;54700;51.796;10.956;2023-02-01T03:21:05;4.80;74.20
67901;DHT22;54700;51.796;10.956;2023-02-01T03:23:37;4.80;74.30
67901;DHT22;54700;51.796;10.956;2023-02-01T03:26:05;4.80;74.50
67901;DHT22;54700;51.796;10.956;2023-02-01T03:28:37;4.80;74.70
67901;DHT22;54700;51.796;10.956;2023-02-01T03:31:09;4.80;75.30
67901;DHT22;54700;51.796;10.956;2023-02-01T03:33:36;4.80;75.40
67901;DHT22;54700;51.796;10.956;2023-02-01T03:36:05;4.80;75.60
67901;DHT22;54700;51.796;10.956;2023-02-01T03:38:44;4.80;75.60
67901;DHT22;54700;51.796;10.956;2023-02-01T03:41:23;4.90;75.90
67901;DHT22;54700;51.796;10.956;2023-02-01T03:43:55;4.90;76.00
67901;DHT22;54700;51.796;10.956;2023-02-01T03:46:29;4.90;76.00
67901;DHT22;54700;51.796;10.956;2023-02-01T03:49:00;4.90;75.90
67901;DHT22;54700;51.796;10.956;2023-02-01T03:51:42;4.90;76.20
67901;DHT22;54700;51.796;10.956;2023-02-01T03:54:11;4.80;76.20
67901;DHT22;54700;51.796;10.956;2023-02-01T03:56:42;4.90;76.20
67901;DHT22;54700;51.796;10.956;2023-02-01T03:59:11;4.80;76.20
67901;DHT22;54700;51.796;10.956;2023-02-01T04:01:44;4.90;76.00
67901;DHT22;54700;51.796;10.956;2023-02-01T04:04:12;4.90;77.10
67901;DHT22;54700;51.796;10.956;2023-02-01T04:06:45;4.90;76.20
67901;DHT22;54700;51.796;10.956;2023-02-01T04:09:13;4.90;77.00
67901;DHT22;54700;51.796;10.956;2023-02-01T04:11:41;4.90;77.00
67901;DHT22;54700;51.796;10.956;2023-02-01T04:14:10;4.90;77.40
67901;DHT22;54700;51.796;10.956;2023-02-01T04:16:37;4.90;77.20
67901;DHT22;54700;51.796;10.956;2023-02-01T04:19:04;4.90;77.70
67901;DHT22;54700;51.796;10.956;2023-02-01T04:21:34;4.90;77.70
67901;DHT22;54700;51.796;10.956;2023-02-01T04:24:01;4.90;78.30
67901;DHT22;54700;51.796;10.956;2023-02-01T04:26:29;4.90;78.50
67901;DHT22;54700;51.796;10.956;2023-02-01T04:28:56;4.90;78.40
67901;DHT22;54700;51.796;10.956;2023-02-01T04:31:25;4.80;78.90
67901;DHT22;54700;51.796;10.956;2023-02-01T04:33:52;4.80;80.50
67901;DHT22;54700;51.796;10.956;2023-02-01T04:36:26;4.80;81.30
67901;DHT22;54700;51.796;10.956;2023-02-01T04:38:53;4.80;82.90
67901;DHT22;54700;51.796;10.956;2023-02-01T04:41:20;4.70;84.50
67901;DHT22;54700;51.796;10.956;2023-02-01T04:43:53;4.70;86.10
67901;DHT22;54700;51.796;10.956;2023-02-01T04:46:20;4.60;88.40
67901;DHT22;54700;51.796;10.956;2023-02-01T04:48:47;4.50;89.10
67901;DHT22;54700;51.796;10.956;2023-02-01T04:51:17;4.50;90.60
67901;DHT22;54700;51.796;10.956;2023-02-01T04:53:45;4.50;91.50
67901;DHT22;54700;51.796;10.956;2023-02-01T04:56:14;4.40;92.60
67901;DHT22;54700;51.796;10.956;2023-02-01T04:58:43;4.40;92.90
67901;DHT22;54700;51.796;10.956;2023-02-01T05:01:14;4.30;93.60
67901;DHT22;54700;51.796;10.956;2023-02-01T05:03:44;4.30;94.10
67901;DHT22;54700;51.796;10.956;2023-02-01T05:06:14;4.20;94.50
67901;DHT22;54700;51.796;10.956;2023-02-01T05:08:52;4.20;94.90
67901;DHT22;54700;51.796;10.956;2023-02-01T05:11:19;4.20;95.90
67901;DHT22;54700;51.796;10.956;2023-02-01T05:14:05;4.20;96.10
67901;DHT22;54700;51.796;10.956;2023-02-01T05:16:34;4.10;95.90
67901;DHT22;54700;51.796;10.956;2023-02-01T05:19:04;4.10;96.10
67901;DHT22;54700;51.796;10.956;2023-02-01T05:21:31;4.00;96.60
67901;DHT22;54700;51.796;10.956;2023-02-01T05:24:03;4.00;96.20
67901;DHT22;54700;51.796;10.956;2023-02-01T05:26:40;4.00;94.70
67901;DHT22;54700;51.796;10.956;2023-02-01T05:29:08;4.00;94.20
67901;DHT22;54700;51.796;10.956;2023-02-01T05:31:38;4.00;93.30
67901;DHT22;54700;51.796;10.956;2023-02-01T05:34:08;4.00;92.10
67901;DHT22;54700;51.796;10.956;2023-02-01T05:36:37;4.10;90.00
67901;DHT22;54700;51.796;10.956;2023-02-01T05:39:05;4.20;89.50
67901;DHT22;54700;51.796;10.956;2023-02-01T05:41:32;4.30;87.00
67901;DHT22;54700;51.796;10.956;2023-02-01T05:44:00;4.40;85.30
67901;DHT22;54700;51.796;10.956;2023-02-01T05:46:47;4.40;84.90
67901;DHT22;54700;51.796;10.956;2023-02-01T05:49:15;4.40;84.90
67901;DHT22;54700;51.796;10.956;2023-02-01T05:51:52;4.50;82.50
67901;DHT22;54700;51.796;10.956;2023-02-01T05:54:33;4.50;82.80
67901;DHT22;54700;51.796;10.956;2023-02-01T05:57:39;4.50;83.50
67901;DHT22;54700;51.796;10.956;2023-02-01T06:00:34;4.50;84.10
67901;DHT22;54700;51.796;10.956;2023-02-01T06:03:44;4.70;84.00
67901;DHT22;54700;51.796;10.956;2023-02-01T06:06:27;4.70;84.30
67901;DHT22;54700;51.796;10.956;2023-02-01T06:09:03;4.70;85.10
67901;DHT22;54700;51.796;10.956;2023-02-01T06:11:37;4.70;85.50
67901;DHT22;54700;51.796;10.956;2023-02-01T06:14:25;4.70;84.80
67901;DHT22;54700;51.796;10.956;2023-02-01T06:16:53;4.70;86.20
67901;DHT22;54700;51.796;10.956;2023-02-01T06:19:31;4.60;86.50
67901;DHT22;54700;51.796;10.956;2023-02-01T06:21:59;4.60;86.60
67901;DHT22;54700;51.796;10.956;2023-02-01T06:24:39;4.60;87.00
67901;DHT22;54700;51.796;10.956;2023-02-01T06:27:21;4.60;85.20
67901;DHT22;54700;51.796;10.956;2023-02-01T06:29:58;4.60;85.40
67901;DHT22;54700;51.796;10.956;2023-02-01T06:32:28;4.70;85.80
67901;DHT22;54700;51.796;10.956;2023-02-01T06:35:02;4.60;86.20
67901;DHT22;54700;51.796;10.956;2023-02-01T06:37:36;4.70;86.70
67901;DHT22;54700;51.796;10.956;2023-02-01T06:40:13;4.70;87.20
67901;DHT22;54700;51.796;10.956;2023-02-01T06:42:54;4.70;86.30
67901;DHT22;54700;51.796;10.956;2023-02-01T06:45:30;4.80;85.90
67901;DHT22;54700;51.796;10.956;2023-02-01T06:48:04;4.80;84.50
67901;DHT22;54700;51.796;10.956;2023-02-01T06:50:39;4.90;84.60
67901;DHT22;54700;51.796;10.956;2023-02-01T06:56:08;4.90;84.20
67901;DHT22;54700;51.796;10.956;2023-02-01T06:58:52;4.90;85.20
67901;DHT22;54700;51.796;10.956;2023-02-01T07:01:42;4.90;85.90
67901;DHT22;54700;51.796;10.956;2023-02-01T07:04:24;4.90;86.60
67901;DHT22;54700;51.796;10.956;2023-02-01T07:07:20;4.80;87.20
67901;DHT22;54700;51.796;10.956;2023-02-01T07:10:16;4.80;87.60
67901;DHT22;54700;51.796;10.956;2023-02-01T07:12:45;4.80;89.80
67901;DHT22;54700;51.796;10.956;2023-02-01T07:15:35;4.80;90.70
67901;DHT22;54700;51.796;10.956;2023-02-01T07:18:31;4.70;91.10
67901;DHT22;54700;51.796;10.956;2023-02-01T07:21:14;4.80;90.10
67901;DHT22;54700;51.796;10.956;2023-02-01T07:24:17;4.80;89.90
67901;DHT22;54700;51.796;10.956;2023-02-01T07:26:53;4.80;89.20
67901;DHT22;54700;51.796;10.956;2023-02-01T07:29:31;4.80;90.00
67901;DHT22;54700;51.796;10.956;2023-02-01T07:32:06;4.80;90.30
67901;DHT22;54700;51.796;10.956;2023-02-01T07:34:41;4.80;90.90
67901;DHT22;54700;51.796;10.956;2023-02-01T07:37:23;4.80;91.30
67901;DHT22;54700;51.796;10.956;2023-02-01T07:40:21;4.70;92.40
67901;DHT22;54700;51.796;10.956;2023-02-01T07:43:14;4.70;93.30
67901;DHT22;54700;51.796;10.956;2023-02-01T07:45:53;4.60;94.40
67901;DHT22;54700;51.796;10.956;2023-02-01T07:48:25;4.50;95.50
67901;DHT22;54700;51.796;10.956;2023-02-01T07:51:18;4.40;96.20
67901;DHT22;54700;51.796;10.956;2023-02-01T07:53:57;4.40;96.00
67901;DHT22;54700;51.796;10.956;2023-02-01T07:59:31;4.40;95.80
67901;DHT22;54700;51.796;10.956;2023-02-01T08:02:49;4.40;95.20
67901;DHT22;54700;51.796;10.956;2023-02-01T08:05:36;4.40;95.60
67901;DHT22;54700;51.796;10.956;2023-02-01T08:08:09;4.50;93.70
67901;DHT22;54700;51.796;10.956;2023-02-01T08:10:57;4.60;94.30
67901;DHT22;54700;51.796;10.956;2023-02-01T08:13:47;4.60;94.50
67901;DHT22;54700;51.796;10.956;2023-02-01T08:16:40;4.60;95.80
67901;DHT22;54700;51.796;10.956;2023-02-01T08:19:42;4.60;94.90
67901;DHT22;54700;51.796;10.956;2023-02-01T08:22:25;4.60;95.20
67901;DHT22;54700;51.796;10.956;2023-02-01T08:25:08;4.60;96.10
67901;DHT22;54700;51.796;10.956;2023-02-01T08:27:42;4.60;97.00
67901;DHT22;54700;51.796;10.956;2023-02-01T08:30:16;4.50;97.30
67901;DHT22;54700;51.796;10.956;2023-02-01T08:33:10;4.40;97.10
67901;DHT22;54700;51.796;10.956;2023-02-01T08:36:40;4.40;94.60
67901;DHT22;54700;51.796;10.956;2023-02-01T08:42:30;4.40;94.90
67901;DHT22;54700;51.796;10.956;2023-02-01T08:48:53;4.60;92.50
67901;DHT22;54700;51.796;10.956;2023-02-01T08:51:41;4.80;90.80
67901;DHT22;54700;51.796;10.956;2023-02-01T08:54:37;5.00;89.30
67901;DHT22;54700;51.796;10.956;2023-02-01T09:00:30;5.20;82.40
67901;DHT22;54700;51.796;10.956;2023-02-01T09:03:19;5.30;81.70
67901;DHT22;54700;51.796;10.956;2023-02-01T09:06:54;5.50;80.90
67901;DHT22;54700;51.796;10.956;2023-02-01T09:09:13;5.50;80.60
67901;DHT22;54700;51.796;10.956;2023-02-01T09:12:00;5.60;76.10
67901;DHT22;54700;51.796;10.956;2023-02-01T09:15:04;5.70;77.80
67901;DHT22;54700;51.796;10.956;2023-02-01T09:17:38;5.70;75.40
67901;DHT22;54700;51.796;10.956;2023-02-01T09:20:29;5.80;74.70
67901;DHT22;54700;51.796;10.956;2023-02-01T09:23:26;5.80;74.40
67901;DHT22;54700;51.796;10.956;2023-02-01T09:26:05;5.80;74.50
67901;DHT22;54700;51.796;10.956;2023-02-01T09:28:42;5.70;75.40
67901;DHT22;54700;51.796;10.956;2023-02-01T09:31:55;5.80;74.70
67901;DHT22;54700;51.796;10.956;2023-02-01T09:34:32;5.70;75.90
67901;DHT22;54700;51.796;10.956;2023-02-01T09:37:19;5.70;76.30
67901;DHT22;54700;51.796;10.956;2023-02-01T09:40:15;5.70;75.70
67901;DHT22;54700;51.796;10.956;2023-02-01T09:43:47;5.80;76.30
67901;DHT22;54700;51.796;10.956;2023-02-01T09:46:43;5.80;76.10
67901;DHT22;54700;51.796;10.956;2023-02-01T09:49:17;5.80;77.90
67901;DHT22;54700;51.796;10.956;2023-02-01T09:52:10;5.70;80.00
67901;DHT22;54700;51.796;10.956;2023-02-01T09:54:54;5.70;77.50
67901;DHT22;54700;51.796;10.956;2023-02-01T09:57:31;5.70;78.20
67901;DHT22;54700;51.796;10.956;2023-02-01T10:00:28;5.70;75.70
67901;DHT22;54700;51.796;10.956;2023-02-01T10:03:20;5.70;74.90
67901;DHT22;54700;51.796;10.956;2023-02-01T10:09:08;5.80;74.70
67901;DHT22;54700;51.796;10.956;2023-02-01T10:11:54;5.90;73.40
67901;DHT22;54700;51.796;10.956;2023-02-01T10:14:56;5.90;74.60
67901;DHT22;54700;51.796;10.956;2023-02-01T10:18:21;5.90;76.30
67901;DHT22;54700;51.796;10.956;2023-02-01T10:21:15;5.90;78.90
67901;DHT22;54700;51.796;10.956;2023-02-01T10:24:15;5.80;79.60
67901;DHT22;54700;51.796;10.956;2023-02-01T10:27:31;5.70;80.30
67901;DHT22;54700;51.796;10.956;2023-02-01T10:30:21;5.80;79.70
67901;DHT22;54700;51.796;10.956;2023-02-01T10:33:25;5.80;77.20
67901;DHT22;54700;51.796;10.956;2023-02-01T10:36:29;5.90;73.90
67901;DHT22;54700;51.796;10.956;2023-02-01T10:41:31;6.00;73.40
67901;DHT22;54700;51.796;10.956;2023-02-01T10:42:41;6.10;72.40
67901;DHT22;54700;51.796;10.956;2023-02-01T10:45:43;6.20;71.80
67901;DHT22;54700;51.796;10.956;2023-02-01T10:48:17;6.20;71.60
67901;DHT22;54700;51.796;10.956;2023-02-01T10:50:59;6.20;70.40
67901;DHT22;54700;51.796;10.956;2023-02-01T10:56:53;6.30;69.30
67901;DHT22;54700;51.796;10.956;2023-02-01T10:59:41;6.30;69.30
67901;DHT22;54700;51.796;10.956;2023-02-01T11:05:45;6.40;68.90
67901;DHT22;54700;51.796;10.956;2023-02-01T11:08:17;6.40;68.50
67901;DHT22;54700;51.796;10.956;2023-02-01T11:10:56;6.50;68.10
67901;DHT22;54700;51.796;10.956;2023-02-01T11:13:27;6.50;67.70
67901;DHT22;54700;51.796;10.956;2023-02-01T11:16:13;6.50;67.90
67901;DHT22;54700;51.796;10.956;2023-02-01T11:18:46;6.60;67.10
67901;DHT22;54700;51.796;10.956;2023-02-01T11:21:29;6.60;66.90
67901;DHT22;54700;51.796;10.956;2023-02-01T11:27:13;6.80;65.50
67901;DHT22;54700;51.796;10.956;2023-02-01T11:29:50;6.90;65.50
67901;DHT22;54700;51.796;10.956;2023-02-01T11:32:20;6.90;65.10
67901;DHT22;54700;51.796;10.956;2023-02-01T11:34:51;6.90;64.20
67901;DHT22;54700;51.796;10.956;2023-02-01T11:37:25;6.90;64.80
67901;DHT22;54700;51.796;10.956;2023-02-01T11:40:03;6.80;64.20
67901;DHT22;54700;51.796;10.956;2023-02-01T11:42:57;6.80;64.50
67901;DHT22;54700;51.796;10.956;2023-02-01T11:45:25;6.70;64.70
67901;DHT22;54700;51.796;10.956;2023-02-01T11:47:55;6.70;65.30
67901;DHT22;54700;51.796;10.956;2023-02-01T11:50:31;6.70;65.00
67901;DHT22;54700;51.796;10.956;2023-02-01T11:53:20;6.70;65.10
67901;DHT22;54700;51.796;10.956;2023-02-01T11:56:06;6.70;65.60
67901;DHT22;54700;51.796;10.956;2023-02-01T12:02:18;6.70;65.30
67901;DHT22;54700;51.796;10.956;2023-02-01T12:08:07;6.60;64.40
67901;DHT22;54700;51.796;10.956;2023-02-01T12:10:47;6.60;65.00
67901;DHT22;54700;51.796;10.956;2023-02-01T12:13:29;6.60;65.30
67901;DHT22;54700;51.796;10.956;2023-02-01T12:16:11;6.60;65.00
67901;DHT22;54700;51.796;10.956;2023-02-01T12:18:58;6.60;64.90
67901;DHT22;54700;51.796;10.956;2023-02-01T12:21:45;6.60;65.20
67901;DHT22;54700;51.796;10.956;2023-02-01T12:24:29;6.50;65.00
67901;DHT22;54700;51.796;10.956;2023-02-01T12:27:19;6.50;65.00
67901;DHT22;54700;51.796;10.956;2023-02-01T12:30:13;6.40;64.80
67901;DHT22;54700;51.796;10.956;2023-02-01T12:33:00;6.40;65.40
67901;DHT22;54700;51.796;10.956;2023-02-01T12:38:42;6.30;67.10
67901;DHT22;54700;51.796;10.956;2023-02-01T12:41:27;6.30;68.90
67901;DHT22;54700;51.796;10.956;2023-02-01T12:44:07;6.30;70.40
67901;DHT22;54700;51.796;10.956;2023-02-01T12:46:47;6.30;71.40
67901;DHT22;54700;51.796;10.956;2023-02-01T12:49:21;6.30;72.30
67901;DHT22;54700;51.796;10.956;2023-02-01T12:51:55;6.10;71.70
67901;DHT22;54700;51.796;10.956;2023-02-01T12:54:41;6.10;72.40
67901;DHT22;54700;51.796;10.956;2023-02-01T12:57:27;6.00;72.60
67901;DHT22;54700;51.796;10.956;2023-02-01T13:00:02;6.00;72.60
67901;DHT22;54700;51.796;10.956;2023-02-01T13:02:39;6.00;73.40
67901;DHT22;54700;51.796;10.956;2023-02-01T13:05:20;6.00;73.30
67901;DHT22;54700;51.796;10.956;2023-02-01T13:07:58;6.10;72.80
67901;DHT22;54700;51.796;10.956;2023-02-01T13:10:32;6.10;72.80
67901;DHT22;54700;51.796;10.956;2023-02-01T13:13:04;6.20;73.50
67901;DHT22;54700;51.796;10.956;2023-02-01T13:15:58;6.30;72.10
67901;DHT22;54700;51.796;10.956;2023-02-01T13:18:34;6.40;71.80
67901;DHT22;54700;51.796;10.956;2023-02-01T13:21:06;6.40;72.40
67901;DHT22;54700;51.796;10.956;2023-02-01T13:23:39;6.40;71.30
67901;DHT22;54700;51.796;10.956;2023-02-01T13:26:14;6.40;71.00
67901;DHT22;54700;51.796;10.956;2023-02-01T13:28:44;6.40;71.80
67901;DHT22;54700;51.796;10.956;2023-02-01T13:34:45;6.50;71.30
67901;DHT22;54700;51.796;10.956;2023-02-01T13:37:30;6.40;73.30
67901;DHT22;54700;51.796;10.956;2023-02-01T13:40:16;6.40;74.70
67901;DHT22;54700;51.796;10.956;2023-02-01T13:43:06;6.10;76.50
67901;DHT22;54700;51.796;10.956;2023-02-01T13:45:42;6.00;80.10
67901;DHT22;54700;51.796;10.956;2023-02-01T13:48:19;5.90;81.60
67901;DHT22;54700;51.796;10.956;2023-02-01T13:50:50;5.80;82.70
67901;DHT22;54700;51.796;10.956;2023-02-01T13:53:26;5.80;83.90
67901;DHT22;54700;51.796;10.956;2023-02-01T13:56:02;5.80;87.80
67901;DHT22;54700;51.796;10.956;2023-02-01T13:58:42;5.70;86.50
67901;DHT22;54700;51.796;10.956;2023-02-01T14:07:22;5.30;94.10
67901;DHT22;54700;51.796;10.956;2023-02-01T14:09:59;5.00;95.30
67901;DHT22;54700;51.796;10.956;2023-02-01T14:13:22;4.90;96.10
67901;DHT22;54700;51.796;10.956;2023-02-01T14:16:12;4.80;96.70
67901;DHT22;54700;51.796;10.956;2023-02-01T14:21:49;4.70;98.10
67901;DHT22;54700;51.796;10.956;2023-02-01T14:24:40;4.70;98.00
67901;DHT22;54700;51.796;10.956;2023-02-01T14:27:18;4.60;97.70
67901;DHT22;54700;51.796;10.956;2023-02-01T14:29:50;4.70;97.40
67901;DHT22;54700;51.796;10.956;2023-02-01T14:32:25;4.70;97.60
67901;DHT22;54700;51.796;10.956;2023-02-01T14:34:58;4.70;97.40
67901;DHT22;54700;51.796;10.956;2023-02-01T14:37:28;4.70;96.90
67901;DHT22;54700;51.796;10.956;2023-02-01T14:40:04;4.70;97.10
67901;DHT22;54700;51.796;10.956;2023-02-01T14:42:48;4.70;97.60
67901;DHT22;54700;51.796;10.956;2023-02-01T14:48:45;4.70;97.80
67901;DHT22;54700;51.796;10.956;2023-02-01T14:51:14;4.60;98.10
67901;DHT22;54700;51.796;10.956;2023-02-01T14:53:50;4.50;99.50
67901;DHT22;54700;51.796;10.956;2023-02-01T14:56:20;4.40;99.60
67901;DHT22;54700;51.796;10.956;2023-02-01T14:58:57;4.10;98.90
67901;DHT22;54700;51.796;10.956;2023-02-01T15:01:35;3.40;99.40
67901;DHT22;54700;51.796;10.956;2023-02-01T15:04:09;2.50;99.90
67901;DHT22;54700;51.796;10.956;2023-02-01T15:06:42;2.10;99.90
67901;DHT22;54700;51.796;10.956;2023-02-01T15:09:16;1.70;99.90
67901;DHT22;54700;51.796;10.956;2023-02-01T15:12:03;1.50;99.90
67901;DHT22;54700;51.796;10.956;2023-02-01T15:14:43;1.40;99.90
67901;DHT22;54700;51.796;10.956;2023-02-01T15:17:18;1.40;99.90
67901;DHT22;54700;51.796;10.956;2023-02-01T15:19:54;1.30;99.90
67901;DHT22;54700;51.796;10.956;2023-02-01T15:22:30;1.30;99.90
67901;DHT22;54700;51.796;10.956;2023-02-01T15:25:04;1.40;99.90
67901;DHT22;54700;51.796;10.956;2023-02-01T15:27:44;1.40;99.90
67901;DHT22;54700;51.796;10.956;2023-02-01T15:30:18;1.50;99.90
67901;DHT22;54700;51.796;10.956;2023-02-01T15:32:51;1.70;99.90
67901;DHT22;54700;51.796;10.956;2023-02-01T15:35:44;1.80;99.90
67901;DHT22;54700;51.796;10.956;2023-02-01T15:38:40;2.00;99.90
67901;DHT22;54700;51.796;10.956;2023-02-01T15:41:09;2.10;99.90
67901;DHT22;54700;51.796;10.956;2023-02-01T15:43:46;2.20;99.90
67901;DHT22;54700;51.796;10.956;2023-02-01T15:46:30;2.30;99.90
67901;DHT22;54700;51.796;10.956;2023-02-01T15:49:16;2.30;99.90
67901;DHT22;54700;51.796;10.956;2023-02-01T15:51:48;2.30;99.90
67901;DHT22;54700;51.796;10.956;2023-02-01T15:54:20;2.40;99.90
67901;DHT22;54700;51.796;10.956;2023-02-01T15:56:56;2.50;99.90
67901;DHT22;54700;51.796;10.956;2023-02-01T15:59:32;2.50;99.90
67901;DHT22;54700;51.796;10.956;2023-02-01T16:02:24;2.50;99.90
67901;DHT22;54700;51.796;10.956;2023-02-01T16:05:24;2.50;99.90
67901;DHT22;54700;51.796;10.956;2023-02-01T16:26:48;2.90;99.90
67901;DHT22;54700;51.796;10.956;2023-02-01T16:29:15;2.90;99.90
67901;DHT22;54700;51.796;10.956;2023-02-01T16:31:41;3.00;99.90
67901;DHT22;54700;51.796;10.956;2023-02-01T16:34:11;3.00;99.90
67901;DHT22;54700;51.796;10.956;2023-02-01T16:36:40;3.00;99.90
67901;DHT22;54700;51.796;10.956;2023-02-01T16:39:07;3.00;99.90
67901;DHT22;54700;51.796;10.956;2023-02-01T16:41:41;3.00;99.90
67901;DHT22;54700;51.796;10.956;2023-02-01T16:44:10;3.10;99.90
67901;DHT22;54700;51.796;10.956;2023-02-01T16:46:38;3.20;99.90
67901;DHT22;54700;51.796;10.956;2023-02-01T16:49:08;3.20;99.90
67901;DHT22;54700;51.796;10.956;2023-02-01T16:51:45;3.20;99.90
67901;DHT22;54700;51.796;10.956;2023-02-01T16:54:12;3.30;99.90
67901;DHT22;54700;51.796;10.956;2023-02-01T16:56:38;3.30;99.20
67901;DHT22;54700;51.796;10.956;2023-02-01T16:59:07;3.40;99.00
67901;DHT22;54700;51.796;10.956;2023-02-01T17:01:36;3.40;98.30
67901;DHT22;54700;51.796;10.956;2023-02-01T17:04:03;3.50;98.10
67901;DHT22;54700;51.796;10.956;2023-02-01T17:06:30;3.40;97.50
67901;DHT22;54700;51.796;10.956;2023-02-01T17:08:58;3.50;97.30
67901;DHT22;54700;51.796;10.956;2023-02-01T17:11:27;3.50;98.20
67901;DHT22;54700;51.796;10.956;2023-02-01T17:13:55;3.40;98.30
67901;DHT22;54700;51.796;10.956;2023-02-01T17:16:25;3.40;97.80
67901;DHT22;54700;51.796;10.956;2023-02-01T17:18:56;3.40;97.50
67901;DHT22;54700;51.796;10.956;2023-02-01T17:21:25;3.50;96.80
67901;DHT22;54700;51.796;10.956;2023-02-01T17:23:54;3.50;95.40
67901;DHT22;54700;51.796;10.956;2023-02-01T17:26:23;3.60;95.30
67901;DHT22;54700;51.796;10.956;2023-02-01T17:28:49;3.50;95.30
67901;DHT22;54700;51.796;10.956;2023-02-01T17:31:16;3.50;95.90
67901;DHT22;54700;51.796;10.956;2023-02-01T17:33:43;3.50;95.50
67901;DHT22;54700;51.796;10.956;2023-02-01T17:36:13;3.50;95.30
67901;DHT22;54700;51.796;10.956;2023-02-01T17:38:41;3.60;95.40
67901;DHT22;54700;51.796;10.956;2023-02-01T17:41:09;3.60;94.60
67901;DHT22;54700;51.796;10.956;2023-02-01T17:43:38;3.60;95.00
67901;DHT22;54700;51.796;10.956;2023-02-01T17:46:05;3.70;94.20
67901;DHT22;54700;51.796;10.956;2023-02-01T17:48:36;3.70;95.60
67901;DHT22;54700;51.796;10.956;2023-02-01T17:51:03;3.70;95.40
67901;DHT22;54700;51.796;10.956;2023-02-01T17:53:32;3.70;95.30